Roanoke Rapids, North Carolina
Current Conditions -  °F | °C
As of 9:55 AM on Friday 19 Dec 2014 (Local Time) from KIXA Reporting Station
Clear Clear  
Wind Chill: 31°   Ceiling: Unl
Heat Index: 37°   Visibility: 10mi
Dew Point: 28°   Wind: 8mph
Humidity: 70%   Direction: 30°NNE
Pressure: 30.19"   Gusts: NA
Location:  36.48°N, 77.65°W
Report Text: KIXA 191455Z AUTO 03007KT 10SM CLR 03/M02 A3019 RMK AO2
Loading
Personal Weather Stations






























Interactive Weather Map New forecast layout! Learn more

10-Day Weather Forecast

Advertisements
Track Severe Weather on mobile